Главная страница
METAR-TAF:

METAR-TAF

Аэропорты :

Ангилья, Ангилья

широта: 18-12-17N, долгота: 063-03-18W, высота над уровнем моря: 31 м

Текущие метеонаблюдения

Эта сводка был подготовлена 11 часа и 23 минут назад, в 22:00 UTC
Ветер 11 Узел от восточно-северо-восточный
Температура 24°C
Влажность 78%
Давление 1016 hPa
Видимость 10 км и более
небольшая облачность на высоте 2000 фута

METAR: TQPF 152200Z 07011KT 9999 FEW020 24/20 Q1016

Время: 05:23 (09:23 UTC)

Прогноз

Эта сводка был подготовлена 10 часа и 23 минут назад, в 23:00 UTC
Прогноз действительный с 16-го 00 UTC до 16-го 24 UTC
Ветер 10 Узел от восточный
Видимость 10 км и более
Отдельные облака на высоте 2000 фута
Вероятность 40% :
временами
С 16-го 00 UTC до 16-го 13 UTC
ливневые дожди

TAF: TQPF 152300Z 1600/1624 10010KT 9999 SCT020 PROB40 TEMPO 1600/1613 SHRA

Метеонаблюдения и прогнозы для более 4000 аэропортов (сводки METAR и TAF).

Имеющиеся станции представлены на карте желтыми и красными точками.

Чтобы увидеть название станции, наведите на нее мышь.

Затем щелкните, чтобы увидеть метеонаблюдения и метеопрогнозы.

Управление картой: чтобы увеличить масштаб, щелкните зеленые кнопки с черным крестиком; чтобы уменьшить масштаб, щелкните зеленую кнопку с тире; для просмотра соседних карт щелкайте зеленые стрелки.


METAR-TAF: